Time;durP1;ratioP1;P1;durP2;ratioP2;P2;SDS_P1;SDS_P2;PMS_P1;PMS_P2;Temp;Humidity;BMP_temperature;BMP_pressure;BME280_temperature;BME280_humidity;BME280_pressure;Samples;Min_cycle;Max_cycle;Signal;HPM_P1;HPM_P2
2021/01/07 00:00:26;;;;;;;9.27;3.95;;;1.10;99.90;;;;;;5032031;28;20058;-89
2021/01/07 00:02:52;;;;;;;7.63;3.78;;;1.20;99.90;;;;;;5021861;28;20048;-93
2021/01/07 00:05:18;;;;;;;3.28;1.08;;;1.10;99.90;;;;;;5030820;28;20053;-91
2021/01/07 00:07:43;;;;;;;5.55;3.60;;;1.10;99.90;;;;;;5029391;28;20041;-92
2021/01/07 00:10:10;;;;;;;10.48;3.70;;;1.10;99.90;;;;;;5008862;28;20084;-95
2021/01/07 00:12:35;;;;;;;3.08;2.65;;;1.10;99.90;;;;;;5030738;28;20116;-93
2021/01/07 00:15:02;;;;;;;10.45;4.60;;;1.10;99.90;;;;;;5015288;28;20530;-93
2021/01/07 00:17:27;;;;;;;9.77;4.63;;;1.10;99.90;;;;;;5012707;28;20033;-91
2021/01/07 00:19:54;;;;;;;5.88;4.32;;;1.10;99.90;;;;;;5001365;28;20387;-94
2021/01/07 00:22:20;;;;;;;10.05;4.15;;;1.10;99.90;;;;;;5033832;28;20037;-94
2021/01/07 00:24:45;;;;;;;6.13;2.53;;;1.20;99.90;;;;;;5035633;28;20060;-96
2021/01/07 00:27:11;;;;;;;7.35;2.90;;;1.20;99.90;;;;;;5049574;28;20368;-95
2021/01/07 00:29:38;;;;;;;4.32;3.80;;;1.20;99.90;;;;;;5029979;28;20034;-96
2021/01/07 00:32:04;;;;;;;7.70;4.30;;;1.20;99.90;;;;;;5030193;28;20490;-96
2021/01/07 00:34:30;;;;;;;4.10;2.30;;;1.20;99.90;;;;;;5013397;28;20060;-93
2021/01/07 00:36:57;;;;;;;5.68;3.10;;;1.10;99.90;;;;;;5038444;28;20045;-96
2021/01/07 00:39:23;;;;;;;9.70;5.03;;;1.20;99.90;;;;;;5121182;22;20031;-96
2021/01/07 00:41:57;;;;;;;10.55;4.32;;;1.20;99.90;;;;;;4963388;28;20110;-95
2021/01/07 00:44:23;;;;;;;16.65;5.32;;;1.20;99.90;;;;;;4965617;28;20126;-96
2021/01/07 00:46:51;;;;;;;6.82;3.80;;;1.20;99.90;;;;;;4972997;28;20038;-93
2021/01/07 00:49:17;;;;;;;7.53;4.15;;;1.20;99.90;;;;;;4995414;28;20487;-96
2021/01/07 00:51:43;;;;;;;10.00;4.25;;;1.30;99.90;;;;;;5045743;23;20082;-96
2021/01/07 00:54:10;;;;;;;7.03;3.47;;;1.30;99.90;;;;;;5047930;23;20073;-96
2021/01/07 00:56:37;;;;;;;6.40;3.83;;;1.30;99.90;;;;;;4989450;28;20042;-92
2021/01/07 00:59:05;;;;;;;4.25;3.72;;;1.30;99.90;;;;;;5001793;28;20070;-94
2021/01/07 01:04:10;;;;;;;6.55;4.13;;;1.20;99.90;;;;;;5069633;23;20063;-96
2021/01/07 01:06:36;;;;;;;7.63;3.70;;;1.30;99.90;;;;;;4957534;29;20083;-94
2021/01/07 01:09:13;;;;;;;10.27;3.72;;;1.30;99.90;;;;;;4962684;29;20043;-96
2021/01/07 01:11:51;;;;;;;7.15;3.58;;;1.30;99.90;;;;;;5059216;23;20018;-94
2021/01/07 01:14:19;;;;;;;4.57;3.58;;;1.40;99.90;;;;;;4986863;28;20084;-96
2021/01/07 01:16:50;;;;;;;9.27;4.28;;;1.30;99.90;;;;;;5024212;28;20046;-94
2021/01/07 01:19:19;;;;;;;5.88;3.47;;;1.30;99.90;;;;;;5017941;28;20180;-94
2021/01/07 01:21:52;;;;;;;7.90;2.78;;;1.30;99.90;;;;;;5037356;23;20062;-93
2021/01/07 01:24:20;;;;;;;7.72;4.10;;;1.30;99.90;;;;;;4956498;28;20059;-94
2021/01/07 01:26:53;;;;;;;10.18;3.53;;;1.20;99.90;;;;;;4973503;28;20724;-96
2021/01/07 01:29:19;;;;;;;8.43;3.65;;;1.20;99.90;;;;;;5032166;23;20077;-96
2021/01/07 01:31:45;;;;;;;10.88;4.07;;;1.20;99.90;;;;;;4949655;28;20299;-96
2021/01/07 01:34:11;;;;;;;4.75;2.35;;;1.30;99.90;;;;;;4959616;28;20058;-95
2021/01/07 01:36:37;;;;;;;6.47;3.35;;;1.20;99.90;;;;;;4979060;23;20075;-93
2021/01/07 01:39:15;;;;;;;7.93;3.83;;;1.20;99.90;;;;;;5035583;23;20048;31
2021/01/07 01:41:46;;;;;;;6.57;4.03;;;1.20;99.90;;;;;;5025933;23;20050;-95
2021/01/07 01:44:15;;;;;;;;;;;1.20;99.90;;;;;;4990819;28;20034;-96
2021/01/07 01:46:41;;;;;;;3.08;2.53;;;1.20;99.90;;;;;;4990515;28;19922;-96
2021/01/07 01:49:12;;;;;;;12.93;4.25;;;1.20;99.90;;;;;;5017333;23;20082;-95
2021/01/07 01:51:42;;;;;;;6.00;3.20;;;1.30;99.90;;;;;;4990608;28;20066;-94
2021/01/07 01:54:09;;;;;;;7.47;4.05;;;1.20;99.90;;;;;;4983677;28;20067;-94
2021/01/07 01:56:35;;;;;;;5.05;3.35;;;1.20;99.90;;;;;;4990469;28;20047;-96
2021/01/07 01:59:02;;;;;;;8.02;3.30;;;1.20;99.90;;;;;;4980313;28;20063;-95
2021/01/07 02:01:28;;;;;;;4.03;2.25;;;1.20;99.90;;;;;;4964065;28;20035;-96
2021/01/07 02:03:55;;;;;;;9.70;3.30;;;1.20;99.90;;;;;;4977674;28;20789;-96
2021/01/07 02:06:24;;;;;;;1.63;1.27;;;1.30;99.90;;;;;;4978336;28;20054;-95
2021/01/07 02:09:00;;;;;;;5.07;2.83;;;1.40;99.90;;;;;;4982053;28;20074;-96
2021/01/07 02:11:25;;;;;;;2.60;2.38;;;1.30;99.90;;;;;;4962694;28;20051;-96
2021/01/07 02:13:51;;;;;;;3.83;2.10;;;1.20;99.90;;;;;;4996251;28;20046;-96
2021/01/07 02:16:24;;;;;;;2.80;1.85;;;1.20;99.90;;;;;;4971406;28;20424;-95
2021/01/07 02:18:54;;;;;;;6.22;3.70;;;1.20;99.90;;;;;;4952212;28;20046;-93
2021/01/07 02:21:20;;;;;;;5.90;3.05;;;1.20;99.90;;;;;;4960586;28;20054;-95
2021/01/07 02:23:54;;;;;;;8.30;3.90;;;1.10;99.90;;;;;;4957857;28;20047;-93
2021/01/07 02:26:21;;;;;;;4.47;3.38;;;1.10;99.90;;;;;;4997638;28;20121;-96
2021/01/07 02:28:50;;;;;;;6.88;3.83;;;1.10;99.90;;;;;;4967193;28;20130;-96
2021/01/07 02:31:17;;;;;;;10.23;5.10;;;1.10;99.90;;;;;;4976248;28;20058;-96
2021/01/07 02:33:43;;;;;;;22.58;7.85;;;1.10;99.90;;;;;;4981277;28;20043;-92
2021/01/07 02:36:10;;;;;;;30.75;10.23;;;1.10;99.90;;;;;;4978134;28;20046;-95
2021/01/07 02:38:36;;;;;;;31.65;9.63;;;1.10;99.90;;;;;;4977770;28;20039;-96
2021/01/07 02:41:02;;;;;;;30.17;8.77;;;1.20;99.90;;;;;;4994082;28;20066;-96
2021/01/07 02:43:28;;;;;;;29.27;9.43;;;1.20;99.90;;;;;;4973643;28;20063;-94
2021/01/07 02:45:54;;;;;;;19.15;6.45;;;1.20;99.90;;;;;;4977206;28;20548;-96
2021/01/07 02:48:20;;;;;;;28.42;9.18;;;1.30;99.90;;;;;;4979065;28;20054;-95
2021/01/07 02:50:46;;;;;;;30.50;8.65;;;1.30;99.90;;;;;;4982947;28;20066;-93
2021/01/07 02:53:12;;;;;;;17.90;6.82;;;1.30;99.90;;;;;;4983271;28;20043;-95
2021/01/07 02:55:38;;;;;;;28.98;7.70;;;1.30;99.90;;;;;;5000761;28;20065;-94
2021/01/07 02:58:04;;;;;;;65.30;15.32;;;1.30;99.90;;;;;;4962574;28;20046;-94
2021/01/07 03:00:30;;;;;;;18.52;6.57;;;1.30;99.90;;;;;;4998973;28;20042;-94
2021/01/07 03:02:56;;;;;;;30.83;9.82;;;1.30;99.90;;;;;;4968145;28;20045;-96
2021/01/07 03:05:22;;;;;;;16.08;6.47;;;1.30;99.90;;;;;;4949140;28;20113;-95
2021/01/07 03:07:48;;;;;;;24.55;6.72;;;1.30;99.90;;;;;;4979255;28;20049;-95
2021/01/07 03:10:14;;;;;;;10.07;4.80;;;1.30;99.90;;;;;;4968510;28;20527;-96
2021/01/07 03:12:42;;;;;;;23.15;6.28;;;1.30;99.90;;;;;;5005018;28;20018;-91
2021/01/07 03:15:09;;;;;;;24.23;7.70;;;1.30;99.90;;;;;;4982565;28;20117;-95
2021/01/07 03:17:34;;;;;;;19.63;6.40;;;1.30;99.90;;;;;;4973766;28;20074;-95
2021/01/07 03:20:01;;;;;;;13.05;6.13;;;1.30;99.90;;;;;;4979476;28;20042;-96
2021/01/07 03:22:27;;;;;;;14.07;4.93;;;1.30;99.90;;;;;;4979130;28;20046;-94
2021/01/07 03:24:53;;;;;;;20.20;5.95;;;1.30;99.90;;;;;;5123552;23;20089;-95
2021/01/07 03:27:19;;;;;;;33.88;9.93;;;1.30;99.90;;;;;;4950190;28;20508;-95
2021/01/07 03:29:45;;;;;;;21.25;6.40;;;1.30;99.90;;;;;;4974111;28;20043;-90
2021/01/07 03:32:11;;;;;;;10.32;4.15;;;1.30;99.90;;;;;;4971843;28;20050;-94
2021/01/07 03:34:39;;;;;;;15.25;5.15;;;1.30;99.90;;;;;;4972821;28;20138;-94
2021/01/07 03:37:05;;;;;;;11.05;4.40;;;1.30;99.90;;;;;;4961038;28;20134;-96
2021/01/07 03:39:30;;;;;;;7.60;3.88;;;1.30;99.90;;;;;;4972699;28;20496;-94
2021/01/07 03:41:56;;;;;;;6.70;3.03;;;1.40;99.90;;;;;;4985208;28;20102;-96
2021/01/07 03:44:22;;;;;;;5.53;3.03;;;1.40;99.90;;;;;;4980118;28;20619;-96
2021/01/07 03:46:48;;;;;;;8.65;3.30;;;1.30;99.90;;;;;;4976162;28;20102;-93
2021/01/07 03:49:14;;;;;;;3.78;3.15;;;1.30;99.90;;;;;;4970973;28;20073;-92
2021/01/07 03:51:39;;;;;;;6.80;3.38;;;1.40;99.90;;;;;;4969578;28;20081;-93
2021/01/07 03:54:05;;;;;;;7.22;2.85;;;1.40;99.90;;;;;;4967710;28;20071;-94
2021/01/07 03:56:31;;;;;;;3.88;2.83;;;1.40;99.90;;;;;;4971246;28;20090;-93
2021/01/07 03:58:57;;;;;;;5.43;2.80;;;1.40;99.90;;;;;;4971779;28;20043;-93
2021/01/07 04:01:22;;;;;;;5.60;2.97;;;1.40;99.90;;;;;;4965259;28;20053;-91
2021/01/07 04:03:48;;;;;;;7.30;3.35;;;1.30;99.90;;;;;;4970359;28;20504;-91
2021/01/07 04:06:14;;;;;;;7.55;3.95;;;1.40;99.90;;;;;;4987830;28;20090;-93
2021/01/07 04:08:40;;;;;;;7.68;3.70;;;1.40;99.90;;;;;;4975120;28;20057;-93
2021/01/07 04:11:06;;;;;;;16.58;4.43;;;1.40;99.90;;;;;;4970628;28;20093;-92
2021/01/07 04:13:32;;;;;;;10.57;4.60;;;1.40;99.90;;;;;;4971750;28;20070;-93
2021/01/07 04:15:58;;;;;;;9.15;4.70;;;1.40;99.90;;;;;;4953774;28;20043;-91
2021/01/07 04:18:23;;;;;;;14.85;5.45;;;1.50;99.90;;;;;;4972801;28;20043;-92
2021/01/07 04:20:49;;;;;;;19.88;7.82;;;1.40;99.90;;;;;;4970469;28;20047;-92
2021/01/07 04:23:15;;;;;;;18.38;6.40;;;1.40;99.90;;;;;;4951500;28;20041;-92
2021/01/07 04:25:42;;;;;;;15.40;5.10;;;1.50;99.90;;;;;;4965451;28;20405;-92
2021/01/07 04:28:08;;;;;;;12.65;5.70;;;1.50;99.90;;;;;;4950491;28;20047;-93
2021/01/07 04:30:33;;;;;;;17.02;5.93;;;1.50;99.90;;;;;;4962120;28;20047;-92
2021/01/07 04:32:59;;;;;;;10.82;5.22;;;1.50;99.90;;;;;;4950419;28;20122;-93
2021/01/07 04:35:25;;;;;;;10.88;5.30;;;1.50;99.90;;;;;;4960590;28;20489;-93
2021/01/07 04:37:51;;;;;;;12.68;3.92;;;1.50;99.90;;;;;;4952493;28;20102;-90
2021/01/07 04:40:17;;;;;;;6.30;3.33;;;1.40;99.90;;;;;;4970915;28;20476;-94
2021/01/07 04:42:43;;;;;;;6.78;2.92;;;1.50;99.90;;;;;;4951619;29;20413;-92
2021/01/07 04:45:11;;;;;;;6.65;4.03;;;1.50;99.90;;;;;;4970692;28;20047;-94
2021/01/07 04:47:37;;;;;;;12.52;3.85;;;1.50;99.90;;;;;;4974243;28;20078;-95
2021/01/07 04:50:03;;;;;;;8.75;4.10;;;1.50;99.90;;;;;;4955733;28;20489;-94
2021/01/07 04:52:29;;;;;;;15.95;3.88;;;1.50;99.90;;;;;;4961714;28;20043;-95
2021/01/07 04:54:55;;;;;;;16.42;5.55;;;1.50;99.90;;;;;;4969806;28;20042;-92
2021/01/07 04:57:24;;;;;;;10.15;4.65;;;1.50;99.90;;;;;;4974344;28;20389;-95
2021/01/07 04:59:50;;;;;;;6.47;4.18;;;1.50;99.90;;;;;;4971916;28;20051;-94
2021/01/07 05:02:17;;;;;;;4.13;3.35;;;1.50;99.90;;;;;;4967082;28;20473;-95
2021/01/07 05:04:53;;;;;;;3.42;2.60;;;1.60;99.90;;;;;;4968114;28;20049;-94
2021/01/07 05:07:20;;;;;;;3.03;2.80;;;1.60;99.90;;;;;;4972625;28;20067;-95
2021/01/07 05:09:47;;;;;;;5.25;3.05;;;1.50;99.90;;;;;;4969937;28;20527;-94
2021/01/07 05:12:14;;;;;;;5.47;2.75;;;1.60;99.90;;;;;;4969335;28;20121;-94
2021/01/07 05:14:44;;;;;;;6.30;3.20;;;1.60;99.90;;;;;;4976099;28;20576;-95
2021/01/07 05:17:13;;;;;;;;;;;1.60;99.90;;;;;;4954555;28;20062;-94
2021/01/07 05:19:39;;;;;;;5.82;2.92;;;1.60;99.90;;;;;;4967041;28;19958;-95
2021/01/07 05:22:06;;;;;;;6.07;3.08;;;1.60;99.90;;;;;;4961877;28;20125;-96
2021/01/07 05:24:32;;;;;;;4.60;3.13;;;1.60;99.90;;;;;;4967146;28;20098;-95
2021/01/07 05:27:12;;;;;;;8.70;3.75;;;1.60;99.90;;;;;;4959942;28;20051;-92
2021/01/07 05:29:40;;;;;;;6.47;2.25;;;1.60;99.90;;;;;;4966993;28;20404;-96
2021/01/07 05:32:11;;;;;;;5.13;1.65;;;1.60;99.90;;;;;;4970847;28;20496;-96
2021/01/07 05:34:50;;;;;;;5.32;3.00;;;1.60;99.90;;;;;;4974635;28;20047;-95
2021/01/07 05:37:20;;;;;;;4.68;2.97;;;1.60;99.90;;;;;;4966847;28;20521;-96
2021/01/07 05:39:47;;;;;;;8.10;3.22;;;1.60;99.90;;;;;;4974900;28;20133;-96
2021/01/07 05:42:14;;;;;;;5.18;3.47;;;1.70;99.90;;;;;;4969720;28;20667;-94
2021/01/07 05:44:47;;;;;;;4.57;2.55;;;1.60;99.90;;;;;;4969392;28;20049;-95
2021/01/07 05:47:30;;;;;;;6.32;3.60;;;1.70;99.90;;;;;;4969487;28;20049;-93
2021/01/07 05:49:57;;;;;;;6.25;3.45;;;1.60;99.90;;;;;;4969749;28;20548;-92
2021/01/07 05:52:27;;;;;;;7.03;3.50;;;1.60;99.90;;;;;;4971257;28;20043;-93
2021/01/07 05:54:54;;;;;;;3.42;3.13;;;1.60;99.90;;;;;;4979358;28;20561;-95
2021/01/07 05:57:22;;;;;;;4.78;2.88;;;1.60;99.90;;;;;;4958572;28;20109;-94
2021/01/07 05:59:50;;;;;;;5.35;3.38;;;1.60;99.90;;;;;;4967687;28;20118;-94
2021/01/07 06:02:17;;;;;;;8.20;3.75;;;1.60;99.90;;;;;;4975697;28;20222;-95
2021/01/07 06:04:46;;;;;;;6.30;3.70;;;1.60;99.90;;;;;;4955071;29;20062;-96
2021/01/07 06:07:15;;;;;;;9.77;4.50;;;1.60;99.90;;;;;;4973278;28;20039;-96
2021/01/07 06:09:42;;;;;;;14.88;5.47;;;1.60;99.90;;;;;;4973842;28;20034;-95
2021/01/07 06:12:11;;;;;;;13.60;6.30;;;1.60;99.90;;;;;;4960778;28;20051;-95
2021/01/07 06:14:40;;;;;;;17.00;6.97;;;1.60;99.90;;;;;;4961663;28;20042;-96
2021/01/07 06:17:06;;;;;;;13.55;5.97;;;1.60;99.90;;;;;;4970524;28;20104;-96
2021/01/07 06:19:37;;;;;;;24.70;7.20;;;1.60;99.90;;;;;;4958601;28;20071;-96
2021/01/07 06:22:14;;;;;;;21.23;7.43;;;1.60;99.90;;;;;;4984933;28;20129;-94
2021/01/07 06:24:42;;;;;;;20.90;8.65;;;1.60;99.90;;;;;;4981514;28;20051;-93
2021/01/07 06:27:33;;;;;;;25.42;9.13;;;1.70;99.90;;;;;;4953097;28;20421;-94
2021/01/07 06:30:11;;;;;;;15.75;6.45;;;1.60;99.90;;;;;;4961412;28;20043;-92
2021/01/07 06:32:41;;;;;;;17.00;6.43;;;1.60;99.90;;;;;;4984682;28;20049;-92
2021/01/07 06:35:09;;;;;;;7.97;3.13;;;1.60;99.90;;;;;;4969034;28;20046;-91
2021/01/07 06:37:38;;;;;;;33.13;9.38;;;1.60;99.90;;;;;;4965946;28;20073;-92
2021/01/07 06:40:11;;;;;;;20.45;7.80;;;1.60;99.90;;;;;;4973066;28;20051;-91
2021/01/07 06:42:48;;;;;;;30.75;8.02;;;1.60;99.90;;;;;;4973925;28;20039;-93
2021/01/07 06:45:14;;;;;;;18.58;6.10;;;1.60;99.90;;;;;;4969017;28;20047;-94
2021/01/07 06:47:42;;;;;;;19.40;6.80;;;1.60;99.90;;;;;;4955961;28;20069;-94
2021/01/07 06:50:09;;;;;;;16.80;6.63;;;1.60;99.90;;;;;;4972894;28;20039;-95
2021/01/07 06:52:43;;;;;;;12.05;5.00;;;1.60;99.90;;;;;;4953847;28;20047;-94
2021/01/07 06:55:12;;;;;;;9.32;4.50;;;1.70;99.90;;;;;;4966847;28;20047;-96
2021/01/07 06:57:57;;;;;;;13.15;5.03;;;1.60;99.90;;;;;;4947943;28;20497;-95
2021/01/07 07:00:25;;;;;;;13.43;5.28;;;1.60;99.90;;;;;;4955840;28;20058;-94
2021/01/07 07:03:04;;;;;;;11.88;4.72;;;1.60;99.90;;;;;;4975451;28;20042;-92
2021/01/07 07:05:32;;;;;;;7.45;4.40;;;1.60;99.90;;;;;;4974424;28;20077;-93
2021/01/07 07:08:08;;;;;;;12.15;5.20;;;1.60;99.90;;;;;;4969879;28;20054;-93
2021/01/07 07:10:34;;;;;;;11.77;4.70;;;1.60;99.90;;;;;;4970439;28;20073;-93
2021/01/07 07:13:16;;;;;;;10.15;4.60;;;1.60;99.90;;;;;;4978740;28;20485;-94
2021/01/07 07:15:42;;;;;;;6.30;4.00;;;1.70;99.90;;;;;;4975719;28;20507;-96
2021/01/07 07:18:09;;;;;;;7.32;4.50;;;1.70;99.90;;;;;;4953741;28;20090;-96
2021/01/07 07:20:39;;;;;;;11.52;4.90;;;1.70;99.90;;;;;;4967133;28;20508;-93
2021/01/07 07:23:21;;;;;;;9.20;4.85;;;1.80;99.90;;;;;;4950665;28;20063;-92
2021/01/07 07:25:53;;;;;;;7.22;4.38;;;1.80;99.90;;;;;;4969668;28;20051;-93
2021/01/07 07:28:22;;;;;;;7.47;4.50;;;1.70;99.90;;;;;;4970031;28;20074;-96
2021/01/07 07:30:48;;;;;;;11.15;5.03;;;1.80;99.90;;;;;;4968178;28;20102;-96
2021/01/07 07:33:38;;;;;;;11.77;4.75;;;1.80;99.90;;;;;;4974476;28;20098;-96
2021/01/07 07:36:06;;;;;;;8.82;4.80;;;1.80;99.90;;;;;;4974398;28;20113;-93
2021/01/07 07:38:40;;;;;;;10.30;5.05;;;1.80;99.90;;;;;;4970229;28;20049;-96
2021/01/07 07:41:08;;;;;;;9.45;4.60;;;1.80;99.90;;;;;;4967614;28;20073;-93
2021/01/07 07:43:35;;;;;;;7.78;4.63;;;1.80;99.90;;;;;;4974400;28;20137;-96
2021/01/07 07:46:03;;;;;;;8.18;5.07;;;1.80;99.90;;;;;;4971262;28;20047;-96
2021/01/07 07:48:30;;;;;;;9.05;5.30;;;1.90;99.90;;;;;;4972126;28;20043;-95
2021/01/07 07:51:10;;;;;;;11.80;5.88;;;1.90;99.90;;;;;;4977840;28;20055;-96
2021/01/07 07:53:38;;;;;;;12.02;5.78;;;1.80;99.90;;;;;;4971556;28;20166;-95
2021/01/07 07:56:05;;;;;;;13.50;6.68;;;1.80;99.90;;;;;;4949053;28;20113;-96
2021/01/07 07:58:31;;;;;;;17.67;6.70;;;1.90;99.90;;;;;;4973516;28;20057;-96
2021/01/07 08:00:58;;;;;;;13.93;6.20;;;1.80;99.90;;;;;;4940525;28;20472;-95
2021/01/07 08:03:30;;;;;;;14.48;6.10;;;1.80;99.90;;;;;;4973770;28;20834;-96
2021/01/07 08:06:00;;;;;;;10.10;5.88;;;1.90;99.90;;;;;;4973003;28;20134;-96
2021/01/07 08:08:27;;;;;;;14.35;6.88;;;1.90;99.90;;;;;;4971193;28;20123;-94
2021/01/07 08:10:54;;;;;;;13.18;7.22;;;1.90;99.90;;;;;;4973414;28;20121;-94
2021/01/07 08:13:21;;;;;;;17.23;7.28;;;1.90;99.90;;;;;;4967589;28;20050;-93
2021/01/07 08:15:57;;;;;;;13.50;7.13;;;1.90;99.90;;;;;;4970833;28;20133;-92
2021/01/07 08:18:27;;;;;;;13.73;7.32;;;2.00;99.90;;;;;;4967811;28;20051;-95
2021/01/07 08:20:54;;;;;;;12.48;6.45;;;1.90;99.90;;;;;;4969900;28;20055;-93
2021/01/07 08:23:24;;;;;;;10.00;5.10;;;2.00;99.90;;;;;;4966388;28;20039;-95
2021/01/07 08:25:54;;;;;;;13.80;7.80;;;1.90;99.90;;;;;;4969245;28;20055;-94
2021/01/07 08:28:25;;;;;;;17.17;7.75;;;2.00;99.90;;;;;;4986798;28;20778;-93
2021/01/07 08:31:14;;;;;;;17.38;7.72;;;2.00;99.90;;;;;;4971623;28;20093;-92
2021/01/07 08:33:40;;;;;;;16.60;7.45;;;2.00;99.90;;;;;;4969996;28;20086;-93
2021/01/07 08:36:14;;;;;;;16.50;8.32;;;2.00;99.90;;;;;;4954315;28;20103;-95
2021/01/07 08:38:41;;;;;;;14.77;7.85;;;2.00;99.90;;;;;;4972193;28;20042;-96
2021/01/07 08:41:11;;;;;;;20.02;7.65;;;2.10;99.90;;;;;;4971318;28;20124;-94
2021/01/07 08:43:37;;;;;;;15.30;7.68;;;2.10;99.90;;;;;;4967922;28;20046;-95
2021/01/07 08:46:20;;;;;;;19.25;7.95;;;2.10;99.90;;;;;;4967499;28;21211;-93
2021/01/07 08:49:06;;;;;;;22.83;8.38;;;2.20;99.90;;;;;;4976588;28;20163;-93
2021/01/07 08:51:50;;;;;;;29.25;8.15;;;2.20;99.90;;;;;;4973448;28;20039;-93
2021/01/07 08:54:23;;;;;;;25.23;8.55;;;2.20;99.90;;;;;;4966403;28;20458;-94
2021/01/07 08:56:51;;;;;;;30.05;9.30;;;2.30;99.90;;;;;;4970307;28;20089;-96
2021/01/07 08:59:33;;;;;;;47.50;12.00;;;2.30;99.90;;;;;;4985958;28;20047;-90
2021/01/07 09:02:02;;;;;;;40.17;11.05;;;2.30;99.90;;;;;;4965506;28;20066;-93
2021/01/07 09:04:31;;;;;;;19.20;7.97;;;2.30;99.90;;;;;;4985084;28;20043;-94
2021/01/07 09:06:57;;;;;;;18.23;8.32;;;2.20;99.90;;;;;;4968656;28;20065;-94
2021/01/07 09:09:27;;;;;;;18.25;7.90;;;2.30;99.90;;;;;;4971353;28;20062;-92
2021/01/07 09:12:20;;;;;;;20.05;7.43;;;2.30;99.90;;;;;;4962407;28;20476;-93
2021/01/07 09:15:10;;;;;;;16.45;7.55;;;2.30;99.90;;;;;;4975437;28;20479;-94
2021/01/07 09:17:56;;;;;;;19.15;8.13;;;2.20;99.90;;;;;;4978034;28;20065;-91
2021/01/07 09:20:29;;;;;;;26.67;9.25;;;2.20;99.90;;;;;;4984395;28;20035;-92
2021/01/07 09:23:05;;;;;;;24.10;9.00;;;2.20;99.90;;;;;;4986681;28;20054;-94
2021/01/07 09:25:31;;;;;;;36.17;10.38;;;2.20;99.90;;;;;;4971310;28;20093;-91
2021/01/07 09:27:57;;;;;;;65.88;12.27;;;2.20;99.90;;;;;;4994000;28;20106;-96
2021/01/07 09:30:25;;;;;;;71.30;15.75;;;2.20;99.90;;;;;;4972072;28;20034;-92
2021/01/07 09:32:51;;;;;;;66.90;16.25;;;2.20;99.90;;;;;;4970692;28;20054;-92
2021/01/07 09:35:17;;;;;;;35.75;9.95;;;2.20;99.90;;;;;;4969039;28;20061;-90
2021/01/07 09:37:43;;;;;;;56.53;14.85;;;2.30;99.90;;;;;;4975901;28;20042;-91
2021/01/07 09:40:10;;;;;;;40.28;11.90;;;2.30;99.90;;;;;;4970262;28;20062;-95
2021/01/07 09:42:36;;;;;;;63.53;14.63;;;2.30;99.90;;;;;;4969374;28;20047;-93
2021/01/07 09:45:05;;;;;;;46.13;13.88;;;2.40;99.90;;;;;;4969279;28;20043;-94
2021/01/07 09:47:31;;;;;;;69.38;16.50;;;2.40;99.90;;;;;;4989077;28;20047;-92
2021/01/07 09:49:58;;;;;;;61.28;15.65;;;2.50;99.90;;;;;;4970548;28;20074;-96
2021/01/07 09:52:24;;;;;;;52.90;13.73;;;2.50;99.90;;;;;;4974674;28;20045;-96
2021/01/07 09:54:51;;;;;;;39.03;11.65;;;2.60;99.90;;;;;;4970862;28;20054;-95
2021/01/07 09:57:16;;;;;;;38.58;12.40;;;2.60;99.90;;;;;;4970244;28;20105;-91
2021/01/07 09:59:42;;;;;;;49.92;13.68;;;2.60;99.90;;;;;;4972425;28;20055;-96
2021/01/07 10:02:10;;;;;;;26.83;10.13;;;2.80;99.90;;;;;;4974351;28;20093;-96
2021/01/07 10:04:41;;;;;;;22.17;9.15;;;2.70;99.90;;;;;;4954634;28;20047;-96
2021/01/07 10:07:10;;;;;;;30.10;10.20;;;2.70;99.90;;;;;;4989907;28;20136;-93
2021/01/07 10:09:36;;;;;;;26.55;9.32;;;2.80;99.90;;;;;;4969500;28;20685;-96
2021/01/07 10:12:03;;;;;;;45.33;13.27;;;2.80;99.90;;;;;;4987539;28;20050;-96
2021/01/07 10:14:30;;;;;;;58.28;15.23;;;2.80;99.90;;;;;;4968442;28;20036;-96
2021/01/07 10:17:04;;;;;;;53.65;13.68;;;2.90;99.90;;;;;;4963914;28;20101;-94
2021/01/07 10:19:32;;;;;;;39.97;12.25;;;2.90;99.90;;;;;;4966450;28;20050;-88
2021/01/07 10:22:03;;;;;;;35.13;11.45;;;2.90;99.90;;;;;;4966241;28;20043;-89
2021/01/07 10:24:29;;;;;;;;;;;3.00;99.90;;;;;;4983914;28;20126;-93
2021/01/07 10:26:58;;;;;;;58.85;13.30;;;3.00;99.90;;;;;;4956060;28;19926;-91
2021/01/07 10:29:26;;;;;;;61.15;15.82;;;3.00;99.90;;;;;;4963751;28;20608;-90
2021/01/07 10:31:54;;;;;;;67.03;17.15;;;3.00;99.90;;;;;;4948630;28;20043;-91
2021/01/07 10:34:21;;;;;;;50.30;13.60;;;3.10;99.90;;;;;;4952362;28;20047;-89
2021/01/07 10:36:56;;;;;;;36.15;12.40;;;3.10;99.90;;;;;;4972954;28;20039;-95
2021/01/07 10:39:25;;;;;;;82.25;22.67;;;3.20;99.90;;;;;;4964196;28;20051;-91
2021/01/07 10:41:58;;;;;;;36.22;12.10;;;3.20;99.90;;;;;;4952760;28;20062;-92
2021/01/07 10:44:32;;;;;;;30.52;8.73;;;3.20;99.90;;;;;;4953357;28;20050;-92
2021/01/07 10:47:00;;;;;;;26.33;9.40;;;3.20;99.90;;;;;;4952237;28;20536;-91
2021/01/07 10:49:31;;;;;;;27.33;9.73;;;3.30;99.90;;;;;;4959762;28;20051;-91
2021/01/07 10:57:49;;;;;;;10.23;5.00;;;3.40;99.90;;;;;;4963861;23;20103;-94
2021/01/07 11:00:54;;;;;;;10.73;5.25;;;3.40;99.90;;;;;;4947519;29;20047;-93
2021/01/07 11:03:54;;;;;;;4.75;2.55;;;3.50;99.90;;;;;;4935945;29;20056;-94
2021/01/07 11:06:23;;;;;;;4.68;2.92;;;3.50;99.90;;;;;;4935146;29;20409;-95
2021/01/07 11:09:01;;;;;;;4.15;3.30;;;3.40;99.90;;;;;;4932432;29;20114;-95
2021/01/07 11:11:35;;;;;;;6.57;3.25;;;3.40;99.90;;;;;;4936169;29;20055;-93
2021/01/07 11:14:16;;;;;;;5.60;2.53;;;3.50;99.90;;;;;;4941976;29;20103;-94
2021/01/07 11:16:56;;;;;;;2.88;2.45;;;3.50;99.90;;;;;;4931512;29;20660;-92
2021/01/07 11:19:26;;;;;;;3.00;2.72;;;3.40;99.90;;;;;;4932887;29;20047;-89
2021/01/07 11:22:03;;;;;;;4.05;2.53;;;3.40;99.90;;;;;;4933965;29;20054;-93
2021/01/07 11:24:29;;;;;;;10.02;2.97;;;3.50;99.90;;;;;;4933739;29;20043;-93
2021/01/07 11:26:56;;;;;;;4.63;2.13;;;3.50;99.90;;;;;;4914352;29;20054;-90
2021/01/07 11:29:25;;;;;;;3.47;1.25;;;3.50;99.90;;;;;;4932198;29;20044;-94
2021/01/07 11:31:58;;;;;;;2.40;1.00;;;3.50;99.90;;;;;;4866538;29;20069;-90
2021/01/07 11:34:25;;;;;;;0.82;0.82;;;3.50;99.90;;;;;;4918037;29;20059;-89
2021/01/07 11:37:00;;;;;;;1.83;1.38;;;3.50;99.90;;;;;;4913484;29;20498;-91
2021/01/07 11:39:44;;;;;;;0.80;0.80;;;3.50;99.90;;;;;;4909516;29;20047;-92
2021/01/07 11:42:16;;;;;;;;;;;3.50;99.90;;;;;;4913080;29;20040;-93
2021/01/07 11:45:03;;;;;;;1.95;1.20;;;3.50;99.90;;;;;;4904813;29;19922;-91
2021/01/07 11:47:33;;;;;;;1.35;1.35;;;3.40;99.90;;;;;;4909003;29;20051;-90
2021/01/07 11:50:03;;;;;;;2.28;1.23;;;3.50;99.90;;;;;;4913867;29;20048;-88
2021/01/07 11:52:31;;;;;;;2.83;1.08;;;3.50;99.90;;;;;;4894227;29;20094;-89
2021/01/07 11:54:58;;;;;;;1.58;1.48;;;3.50;99.90;;;;;;4911270;29;20411;-88
2021/01/07 11:57:26;;;;;;;2.28;1.10;;;3.60;99.90;;;;;;4931690;29;20036;-91
2021/01/07 11:59:54;;;;;;;1.33;1.23;;;3.60;99.90;;;;;;4944571;29;20107;-89
2021/01/07 12:02:21;;;;;;;2.53;1.20;;;3.60;99.90;;;;;;4931452;29;20491;-90
2021/01/07 12:04:47;;;;;;;1.20;1.10;;;3.70;99.90;;;;;;4931156;29;20621;-90
2021/01/07 12:07:33;;;;;;;1.23;0.75;;;3.70;99.90;;;;;;4927557;29;20083;-89
2021/01/07 12:10:02;;;;;;;0.73;0.60;;;3.60;99.90;;;;;;4927245;29;20387;-88
2021/01/07 12:12:36;;;;;;;0.55;0.55;;;3.60;99.90;;;;;;4946942;29;20107;-89
2021/01/07 12:15:06;;;;;;;1.27;0.68;;;3.60;99.90;;;;;;4932121;29;20051;-92
2021/01/07 12:17:36;;;;;;;0.60;0.60;;;3.60;99.90;;;;;;4929601;29;20044;-90
2021/01/07 12:20:02;;;;;;;5.18;0.90;;;3.60;99.90;;;;;;4932959;29;20506;-92
2021/01/07 12:22:34;;;;;;;1.15;1.00;;;3.50;99.90;;;;;;4932096;29;20055;-91
2021/01/07 12:25:02;;;;;;;0.70;0.70;;;3.60;99.90;;;;;;4932071;29;20035;-91
2021/01/07 12:27:31;;;;;;;2.05;0.88;;;3.60;99.90;;;;;;4931435;29;20422;-90
2021/01/07 12:30:03;;;;;;;3.70;0.98;;;3.60;99.90;;;;;;4916413;29;20081;-91
2021/01/07 12:32:33;;;;;;;1.83;0.50;;;3.60;99.90;;;;;;4928278;29;20044;-90
2021/01/07 12:35:08;;;;;;;;;;;3.60;99.90;;;;;;4931435;29;20054;-93
2021/01/07 12:37:45;;;;;;;1.70;0.60;;;3.70;99.90;;;;;;4930700;29;19923;-92
2021/01/07 12:40:14;;;;;;;0.40;0.40;;;3.70;99.90;;;;;;4936532;29;20048;-89
2021/01/07 12:42:39;;;;;;;0.85;0.60;;;3.70;99.90;;;;;;4930761;29;20043;-90
2021/01/07 12:45:09;;;;;;;1.70;0.60;;;3.80;99.90;;;;;;4930753;29;20118;-90
2021/01/07 12:47:35;;;;;;;0.60;0.60;;;3.70;99.90;;;;;;4946586;29;20055;-91
2021/01/07 12:50:02;;;;;;;1.17;0.68;;;3.70;99.90;;;;;;4947035;29;20047;-93
2021/01/07 12:52:30;;;;;;;0.80;0.80;;;3.70;99.90;;;;;;4931203;29;20043;-91
2021/01/07 12:54:57;;;;;;;2.88;0.60;;;3.70;99.90;;;;;;4930230;29;20058;-89
2021/01/07 12:57:48;;;;;;;0.38;0.38;;;3.70;99.90;;;;;;4930729;29;20039;-89
2021/01/07 13:00:30;;;;;;;0.57;0.57;;;3.70;99.90;;;;;;4930729;29;20442;-89
2021/01/07 13:03:25;;;;;;;0.73;0.73;;;3.70;99.90;;;;;;4930326;29;20058;-92
2021/01/07 13:05:56;;;;;;;4.03;0.88;;;3.60;99.90;;;;;;4931158;29;20067;-93
2021/01/07 13:08:24;;;;;;;0.77;0.70;;;3.60;99.90;;;;;;4945294;28;20118;-91
2021/01/07 13:10:55;;;;;;;0.90;0.60;;;3.70;99.90;;;;;;4929795;29;20094;-91
2021/01/07 13:13:25;;;;;;;2.95;0.40;;;3.70;99.90;;;;;;4931744;29;20431;-90